createdAt,value
2018-07-24T00:00:18.843Z,12.53
2018-07-24T00:02:48.027Z,13.80
2018-07-24T00:05:17.230Z,13.13
2018-07-24T00:07:46.401Z,13.50
2018-07-24T00:10:15.642Z,16.07
2018-07-24T00:12:44.850Z,15.97
2018-07-24T00:15:14.018Z,17.50
2018-07-24T00:17:43.225Z,14.60
2018-07-24T00:20:12.234Z,14.27
2018-07-24T00:25:42.083Z,12.97
2018-07-24T00:28:11.262Z,13.50
2018-07-24T00:30:40.454Z,13.90
2018-07-24T00:33:17.691Z,13.10
2018-07-24T00:35:46.885Z,12.40
2018-07-24T00:38:16.130Z,12.30
2018-07-24T00:40:45.357Z,14.53
2018-07-24T00:43:14.623Z,12.57
2018-07-24T00:45:43.794Z,13.63
2018-07-24T00:48:13.120Z,13.53
2018-07-24T00:50:42.334Z,15.20
2018-07-24T00:53:11.515Z,13.77
2018-07-24T00:55:40.717Z,15.03
2018-07-24T00:58:09.894Z,12.70
2018-07-24T01:00:39.068Z,11.90
2018-07-24T01:03:08.359Z,12.50
2018-07-24T01:05:37.600Z,15.60
2018-07-24T01:08:06.900Z,18.50
2018-07-24T01:10:36.161Z,17.20
2018-07-24T01:13:05.413Z,18.50
2018-07-24T01:15:34.585Z,14.73
2018-07-24T01:18:17.913Z,15.53
2018-07-24T01:20:47.101Z,16.70
2018-07-24T01:23:16.287Z,13.83
2018-07-24T01:25:45.495Z,16.47
2018-07-24T01:28:14.669Z,15.00
2018-07-24T01:30:43.902Z,14.17
2018-07-24T01:33:19.630Z,12.70
2018-07-24T01:35:48.843Z,16.07
2018-07-24T01:38:18.070Z,15.10
2018-07-24T01:40:47.287Z,13.33
2018-07-24T01:43:16.474Z,15.20
2018-07-24T01:45:45.734Z,16.93
2018-07-24T01:48:15.018Z,15.93
2018-07-24T01:50:44.217Z,16.00
2018-07-24T01:53:13.470Z,16.27
2018-07-24T01:55:42.846Z,13.67
2018-07-24T01:58:12.031Z,13.60
2018-07-24T02:00:41.245Z,14.33
2018-07-24T02:03:10.310Z,13.90
2018-07-24T02:05:39.491Z,15.50
2018-07-24T02:08:08.687Z,14.40
2018-07-24T02:10:37.889Z,15.60
2018-07-24T02:13:07.135Z,19.63
2018-07-24T02:15:36.338Z,14.47
2018-07-24T02:18:05.631Z,15.00
2018-07-24T02:20:34.850Z,15.83
2018-07-24T02:23:04.039Z,14.50
2018-07-24T02:25:33.355Z,14.30
2018-07-24T02:28:02.776Z,14.67
2018-07-24T02:30:31.978Z,14.20
2018-07-24T02:33:17.486Z,14.00
2018-07-24T02:35:46.681Z,14.60
2018-07-24T02:38:15.882Z,13.70
2018-07-24T02:40:45.147Z,14.90
2018-07-24T02:43:14.377Z,14.17
2018-07-24T02:45:43.558Z,13.37
2018-07-24T02:48:12.794Z,13.83
2018-07-24T02:50:42.065Z,13.70
2018-07-24T02:53:11.266Z,13.40
2018-07-24T02:55:40.481Z,14.20
2018-07-24T02:58:09.732Z,13.50
2018-07-24T03:00:38.928Z,13.60
2018-07-24T03:03:08.154Z,14.37
2018-07-24T03:05:37.384Z,12.53
2018-07-24T03:08:06.655Z,13.20
2018-07-24T03:10:36.093Z,13.80
2018-07-24T03:13:05.284Z,13.47
2018-07-24T03:15:34.502Z,13.17
2018-07-24T03:18:03.795Z,13.50
2018-07-24T03:20:32.987Z,14.47
2018-07-24T03:23:02.183Z,13.13
2018-07-24T03:25:31.397Z,12.70
2018-07-24T03:28:00.592Z,13.30
2018-07-24T03:30:29.794Z,13.20
2018-07-24T03:32:59.108Z,14.03
2018-07-24T03:35:28.326Z,13.70
2018-07-24T03:37:57.606Z,13.63
2018-07-24T03:40:26.848Z,13.20
2018-07-24T03:42:56.027Z,14.60
2018-07-24T03:45:25.230Z,13.20
2018-07-24T03:47:54.479Z,13.50
2018-07-24T03:50:23.901Z,14.70
2018-07-24T03:52:53.214Z,13.03
2018-07-24T03:55:22.442Z,15.50
2018-07-24T03:57:51.688Z,15.00
2018-07-24T04:00:20.874Z,16.50
2018-07-24T04:02:50.193Z,13.23
2018-07-24T04:05:19.394Z,16.23
2018-07-24T04:07:51.186Z,14.60
2018-07-24T04:10:21.600Z,15.17
2018-07-24T04:12:51.158Z,16.60
2018-07-24T04:15:20.366Z,15.43
2018-07-24T04:17:49.559Z,14.90
2018-07-24T04:23:19.191Z,14.13
2018-07-24T04:25:48.502Z,13.50
2018-07-24T04:28:17.686Z,15.30
2018-07-24T04:30:46.989Z,15.03
2018-07-24T04:33:16.206Z,15.97
2018-07-24T04:35:45.395Z,17.00
2018-07-24T04:38:14.603Z,14.90
2018-07-24T04:40:43.834Z,12.60
2018-07-24T04:43:13.035Z,16.37
2018-07-24T04:45:42.452Z,16.13
2018-07-24T04:48:11.737Z,15.47
2018-07-24T04:50:40.972Z,15.67
2018-07-24T04:53:10.636Z,16.63
2018-07-24T04:55:40.671Z,17.53
2018-07-24T04:58:10.012Z,15.80
2018-07-24T05:00:45.317Z,15.30
2018-07-24T05:03:14.298Z,16.27
2018-07-24T05:05:43.595Z,16.50
2018-07-24T05:08:12.814Z,15.50
2018-07-24T05:10:42.044Z,16.17
2018-07-24T05:13:11.353Z,15.63
2018-07-24T05:15:40.551Z,17.03
2018-07-24T05:18:09.819Z,18.37
2018-07-24T05:20:39.136Z,18.23
2018-07-24T05:23:08.332Z,19.20
2018-07-24T05:25:37.551Z,17.17
2018-07-24T05:28:06.763Z,17.73
2018-07-24T05:30:36.101Z,19.00
2018-07-24T05:33:05.451Z,18.50
2018-07-24T05:35:34.702Z,19.67
2018-07-24T05:38:04.036Z,17.30
2018-07-24T05:40:33.286Z,18.70
2018-07-24T05:43:17.476Z,18.00
2018-07-24T05:45:46.900Z,18.43
2018-07-24T05:48:16.107Z,17.57
2018-07-24T05:50:45.319Z,17.37
2018-07-24T05:53:14.802Z,16.50
2018-07-24T05:55:44.031Z,18.73
2018-07-24T05:58:13.339Z,17.23
2018-07-24T06:00:42.846Z,18.03
2018-07-24T06:03:18.115Z,16.60
2018-07-24T06:05:47.426Z,15.67
2018-07-24T06:08:16.642Z,15.37
2018-07-24T06:13:46.007Z,17.70
2018-07-24T06:16:15.327Z,17.70
2018-07-24T06:18:44.608Z,15.17
2018-07-24T06:21:13.939Z,16.53
2018-07-24T06:23:43.197Z,19.07
2018-07-24T06:26:12.372Z,17.00
2018-07-24T06:28:41.590Z,16.00
2018-07-24T06:31:10.815Z,16.30
2018-07-24T06:33:40.057Z,17.63
2018-07-24T06:36:09.239Z,17.40
2018-07-24T06:38:38.466Z,17.13
2018-07-24T06:41:07.744Z,15.80
2018-07-24T06:43:36.969Z,16.80
2018-07-24T06:46:06.246Z,16.00
2018-07-24T06:48:35.432Z,15.30
2018-07-24T06:51:04.706Z,16.03
2018-07-24T06:53:33.951Z,13.47
2018-07-24T06:56:03.173Z,15.40
2018-07-24T06:58:32.363Z,14.10
2018-07-24T07:01:01.575Z,15.90
2018-07-24T07:03:30.949Z,15.00
2018-07-24T07:06:00.147Z,13.77
2018-07-24T07:08:29.372Z,12.70
2018-07-24T07:10:58.575Z,12.70
2018-07-24T07:13:27.888Z,15.47
2018-07-24T07:15:57.136Z,13.60
2018-07-24T07:18:26.323Z,15.63
2018-07-24T07:20:55.597Z,15.00
2018-07-24T07:23:24.910Z,12.57
2018-07-24T07:25:54.151Z,12.60
2018-07-24T07:28:23.627Z,14.07
2018-07-24T07:30:52.887Z,12.43
2018-07-24T07:33:22.095Z,10.77
2018-07-24T07:35:51.292Z,11.50
2018-07-24T07:38:20.609Z,12.90
2018-07-24T07:40:49.834Z,11.17
2018-07-24T07:43:19.108Z,12.10
2018-07-24T07:45:48.290Z,13.50
2018-07-24T07:48:19.209Z,12.67
2018-07-24T07:50:48.460Z,13.23
2018-07-24T07:53:17.895Z,13.63
2018-07-24T07:55:47.328Z,12.20
2018-07-24T07:58:16.565Z,13.53
2018-07-24T08:00:45.771Z,12.13
2018-07-24T08:03:15.002Z,10.67
2018-07-24T08:05:44.291Z,11.37
2018-07-24T08:08:13.643Z,11.63
2018-07-24T08:10:42.819Z,11.03
2018-07-24T08:13:12.043Z,10.10
2018-07-24T08:18:41.814Z,11.00
2018-07-24T08:21:11.048Z,10.27
2018-07-24T08:23:40.230Z,9.07
2018-07-24T08:26:09.444Z,13.13
2018-07-24T08:28:38.635Z,10.30
2018-07-24T08:31:08.126Z,8.67
2018-07-24T08:33:38.093Z,9.23
2018-07-24T08:36:07.346Z,9.83
2018-07-24T08:38:36.557Z,9.80
2018-07-24T08:41:05.850Z,9.70
2018-07-24T08:43:35.124Z,8.40
2018-07-24T08:46:04.413Z,7.97
2018-07-24T08:48:33.621Z,8.07
2018-07-24T08:51:02.916Z,8.33
2018-07-24T08:53:32.350Z,6.53
2018-07-24T08:56:01.861Z,9.20
2018-07-24T08:58:31.115Z,8.97
2018-07-24T09:01:00.318Z,7.87
2018-07-24T09:03:29.709Z,9.23
2018-07-24T09:05:58.918Z,7.93
2018-07-24T09:08:28.142Z,7.30
2018-07-24T09:11:17.126Z,7.90
2018-07-24T09:13:46.393Z,7.00
2018-07-24T09:16:15.630Z,7.50
2018-07-24T09:18:44.814Z,8.50
2018-07-24T09:21:14.001Z,6.47
2018-07-24T09:23:43.274Z,5.73
2018-07-24T09:26:12.454Z,5.87
2018-07-24T09:28:41.644Z,5.60
2018-07-24T09:31:10.886Z,5.13
2018-07-24T09:33:40.074Z,5.57
2018-07-24T09:36:09.990Z,6.80
2018-07-24T09:38:39.239Z,6.83
2018-07-24T09:41:08.511Z,5.80
2018-07-24T09:43:37.764Z,6.70
2018-07-24T09:46:06.757Z,6.53
2018-07-24T09:48:35.792Z,5.90
2018-07-24T09:51:05.063Z,7.07
2018-07-24T09:53:34.249Z,6.17
2018-07-24T09:56:03.445Z,6.47
2018-07-24T09:58:32.713Z,6.10
2018-07-24T10:01:07.183Z,6.97
2018-07-24T10:03:36.426Z,6.40
2018-07-24T10:06:05.629Z,7.27
2018-07-24T10:08:34.895Z,7.10
2018-07-24T10:11:04.135Z,6.90
2018-07-24T10:13:33.579Z,6.40
2018-07-24T10:16:02.779Z,6.90
2018-07-24T10:18:31.959Z,6.80
2018-07-24T10:21:17.962Z,6.33
2018-07-24T10:23:47.148Z,5.70
2018-07-24T10:26:16.362Z,5.33
2018-07-24T10:28:45.732Z,5.67
2018-07-24T10:31:14.907Z,6.10
2018-07-24T10:33:44.237Z,4.60
2018-07-24T10:36:13.494Z,5.77
2018-07-24T10:38:42.891Z,4.43
2018-07-24T10:41:12.115Z,4.57
2018-07-24T10:43:41.310Z,4.03
2018-07-24T10:46:10.556Z,4.10
2018-07-24T10:48:39.766Z,4.50
2018-07-24T10:51:09.014Z,4.70
2018-07-24T10:53:38.291Z,4.27
2018-07-24T10:56:07.502Z,4.10
2018-07-24T10:58:37.691Z,4.30
2018-07-24T11:01:06.919Z,4.30
2018-07-24T11:03:36.171Z,3.50
2018-07-24T11:06:05.419Z,4.60
2018-07-24T11:08:34.650Z,4.13
2018-07-24T11:11:03.925Z,3.93
2018-07-24T11:13:33.084Z,5.10
2018-07-24T11:16:02.336Z,4.20
2018-07-24T11:18:31.410Z,3.87
2018-07-24T11:21:00.790Z,4.13
2018-07-24T11:23:29.969Z,3.63
2018-07-24T11:25:59.207Z,3.70
2018-07-24T11:28:28.757Z,3.73
2018-07-24T11:30:58.082Z,3.37
2018-07-24T11:33:27.380Z,3.47
2018-07-24T11:35:56.782Z,4.40
2018-07-24T11:38:25.916Z,3.70
2018-07-24T11:40:55.236Z,3.40
2018-07-24T11:43:24.502Z,3.83
2018-07-24T11:45:53.743Z,3.57
2018-07-24T11:48:22.939Z,3.90
2018-07-24T11:50:52.324Z,5.10
2018-07-24T11:56:22.371Z,4.43
2018-07-24T11:59:16.911Z,4.43
2018-07-24T12:01:46.139Z,2.53
2018-07-24T12:04:15.389Z,2.80
2018-07-24T12:06:44.574Z,4.00
2018-07-24T12:09:14.253Z,2.77
2018-07-24T12:11:43.548Z,4.27
2018-07-24T12:14:12.732Z,3.20
2018-07-24T12:16:41.941Z,3.17
2018-07-24T12:19:11.147Z,3.90
2018-07-24T12:21:40.375Z,2.87
2018-07-24T12:24:09.615Z,3.30
2018-07-24T12:29:39.350Z,2.80
2018-07-24T12:32:18.972Z,3.07
2018-07-24T12:34:48.212Z,4.97
2018-07-24T12:37:17.469Z,3.17
2018-07-24T12:39:46.707Z,3.37
2018-07-24T12:42:15.914Z,3.07
2018-07-24T12:44:45.109Z,3.00
2018-07-24T12:47:14.462Z,3.37
2018-07-24T12:49:43.649Z,3.23
2018-07-24T12:52:12.884Z,3.40
2018-07-24T12:54:42.093Z,3.40
2018-07-24T12:57:11.305Z,3.20
2018-07-24T12:59:40.527Z,3.03
2018-07-24T13:02:19.582Z,3.50
2018-07-24T13:04:48.818Z,3.40
2018-07-24T13:07:17.801Z,3.03
2018-07-24T13:09:47.002Z,2.80
2018-07-24T13:12:16.272Z,4.97
2018-07-24T13:14:45.460Z,3.17
2018-07-24T13:17:14.869Z,3.77
2018-07-24T13:19:44.086Z,3.20
2018-07-24T13:22:19.265Z,3.93
2018-07-24T13:24:48.212Z,4.00
2018-07-24T13:27:17.678Z,3.27
2018-07-24T13:29:46.942Z,3.20
2018-07-24T13:32:19.186Z,2.77
2018-07-24T13:34:48.411Z,3.70
2018-07-24T13:37:17.375Z,2.93
2018-07-24T13:39:46.582Z,3.30
2018-07-24T13:42:15.772Z,3.10
2018-07-24T13:44:45.065Z,2.77
2018-07-24T13:47:14.255Z,3.17
2018-07-24T13:49:43.576Z,3.20
2018-07-24T13:52:12.826Z,3.37
2018-07-24T13:54:42.038Z,3.33
2018-07-24T13:57:11.264Z,3.50
2018-07-24T13:59:40.468Z,2.90
2018-07-24T14:02:18.244Z,2.90
2018-07-24T14:04:47.414Z,3.10
2018-07-24T14:07:16.684Z,3.50
2018-07-24T14:09:46.015Z,3.70
2018-07-24T14:12:15.247Z,3.27
2018-07-24T14:14:44.503Z,3.70
2018-07-24T14:17:13.812Z,5.07
2018-07-24T14:19:43.012Z,4.60
2018-07-24T14:22:12.258Z,5.03
2018-07-24T14:24:41.444Z,3.60
2018-07-24T14:27:10.667Z,2.87
2018-07-24T14:29:39.910Z,3.10
2018-07-24T14:32:18.790Z,3.47
2018-07-24T14:34:47.995Z,4.60
2018-07-24T14:37:17.201Z,3.90
2018-07-24T14:39:46.543Z,3.87
2018-07-24T14:42:15.795Z,3.23
2018-07-24T14:44:45.044Z,3.60
2018-07-24T14:47:14.267Z,3.30
2018-07-24T14:49:43.614Z,4.37
2018-07-24T14:52:12.819Z,3.60
2018-07-24T14:54:42.039Z,3.63
2018-07-24T14:57:11.268Z,3.20
2018-07-24T15:02:41.273Z,3.30
2018-07-24T15:05:10.518Z,3.40
2018-07-24T15:07:39.794Z,3.00
2018-07-24T15:10:09.075Z,3.30
2018-07-24T15:12:38.246Z,3.20
2018-07-24T15:15:07.555Z,3.40
2018-07-24T15:17:36.746Z,4.00
2018-07-24T15:20:06.222Z,2.97
2018-07-24T15:22:35.533Z,2.87
2018-07-24T15:25:04.822Z,4.27
2018-07-24T15:28:21.918Z,3.27
2018-07-24T15:30:51.203Z,3.70
2018-07-24T15:33:20.453Z,3.17
2018-07-24T15:35:50.046Z,2.90
2018-07-24T15:38:19.490Z,3.00
2018-07-24T15:40:48.994Z,3.80
2018-07-24T15:43:18.223Z,3.77
2018-07-24T15:45:47.451Z,3.47
2018-07-24T15:48:20.562Z,3.30
2018-07-24T15:50:49.893Z,3.23
2018-07-24T15:53:19.112Z,3.30
2018-07-24T15:55:48.302Z,3.30
2018-07-24T15:58:17.529Z,2.57
2018-07-24T16:00:46.754Z,3.17
2018-07-24T16:03:15.974Z,3.47
2018-07-24T16:11:45.815Z,3.03
2018-07-24T16:14:14.992Z,3.43
2018-07-24T16:16:44.183Z,2.63
2018-07-24T16:19:13.403Z,3.10
2018-07-24T16:21:42.703Z,3.03
2018-07-24T16:24:12.033Z,3.80
2018-07-24T16:26:41.320Z,3.13
2018-07-24T16:29:10.586Z,2.70
2018-07-24T16:31:39.772Z,3.30
2018-07-24T16:34:09.003Z,3.03
2018-07-24T16:36:38.318Z,2.97
2018-07-24T16:39:10.151Z,4.40
2018-07-24T16:41:39.727Z,3.67
2018-07-24T16:44:18.591Z,4.27
2018-07-24T16:46:47.871Z,3.23
2018-07-24T16:49:17.092Z,4.10
2018-07-24T16:51:46.344Z,3.30
2018-07-24T16:54:15.596Z,2.80
2018-07-24T16:56:45.075Z,3.47
2018-07-24T16:59:14.597Z,3.63
2018-07-24T17:01:43.786Z,3.07
2018-07-24T17:04:13.042Z,3.43
2018-07-24T17:06:42.311Z,3.57
2018-07-24T17:10:41.016Z,3.80
2018-07-24T17:13:10.288Z,3.37
2018-07-24T17:15:39.462Z,3.80
2018-07-24T17:18:08.662Z,3.90
2018-07-24T17:20:37.895Z,3.50
2018-07-24T17:23:07.199Z,4.03
2018-07-24T17:25:36.462Z,3.50
2018-07-24T17:28:05.713Z,3.67
2018-07-24T17:30:35.000Z,3.60
2018-07-24T17:33:18.366Z,3.00
2018-07-24T17:36:17.101Z,3.00
2018-07-24T17:38:46.340Z,3.17
2018-07-24T17:41:19.255Z,3.20
2018-07-24T17:43:48.391Z,7.93
2018-07-24T17:46:18.857Z,4.53
2018-07-24T17:48:47.942Z,4.60
2018-07-24T17:51:17.191Z,4.00
2018-07-24T17:53:46.416Z,4.27
2018-07-24T17:56:15.719Z,4.90
2018-07-24T17:58:45.008Z,4.97
2018-07-24T18:01:14.235Z,5.50
2018-07-24T18:03:43.582Z,5.00
2018-07-24T18:06:12.776Z,3.50
2018-07-24T18:08:41.959Z,3.23
2018-07-24T18:11:19.407Z,4.83
2018-07-24T18:13:48.603Z,3.40
2018-07-24T18:16:17.872Z,2.97
2018-07-24T18:18:47.059Z,3.13
2018-07-24T18:21:16.538Z,3.00
2018-07-24T18:23:45.727Z,3.47
2018-07-24T18:26:14.923Z,3.40
2018-07-24T18:31:44.416Z,3.27
2018-07-24T18:34:13.704Z,4.43
2018-07-24T18:36:42.911Z,3.70
2018-07-24T18:39:18.650Z,16.20
2018-07-24T18:42:16.757Z,3.20
2018-07-24T18:44:45.989Z,2.80
2018-07-24T18:47:15.466Z,3.20
2018-07-24T18:49:44.666Z,2.70
2018-07-24T18:52:13.898Z,4.50
2018-07-24T18:54:43.306Z,2.83
2018-07-24T18:57:12.567Z,3.37
2018-07-24T18:59:41.887Z,2.90
2018-07-24T19:02:22.290Z,4.10
2018-07-24T19:04:51.817Z,14.80
2018-07-24T19:07:21.030Z,6.97
2018-07-24T19:09:51.133Z,3.00
2018-07-24T19:12:20.454Z,9.27
2018-07-24T19:14:49.742Z,12.73
2018-07-24T19:17:19.039Z,7.30
2018-07-24T19:19:48.313Z,6.17
2018-07-24T19:22:17.584Z,3.00
2018-07-24T19:24:46.788Z,3.00
2018-07-24T19:27:16.042Z,4.27
2018-07-24T19:29:45.418Z,3.20
2018-07-24T19:32:20.672Z,3.00
2018-07-24T19:34:49.893Z,3.27
2018-07-24T19:37:19.784Z,2.90
2018-07-24T19:39:48.989Z,2.93
2018-07-24T19:42:18.244Z,2.90
2018-07-24T19:44:47.435Z,2.73
2018-07-24T19:47:19.089Z,6.00
2018-07-24T19:49:48.305Z,3.57
2018-07-24T19:52:19.558Z,3.00
2018-07-24T19:54:48.765Z,3.50
2018-07-24T19:57:19.265Z,3.00
2018-07-24T19:59:48.494Z,5.70
2018-07-24T20:02:21.589Z,4.23
2018-07-24T20:04:50.869Z,3.00
2018-07-24T20:07:20.171Z,3.50
2018-07-24T20:09:51.766Z,3.77
2018-07-24T20:12:22.395Z,4.30
2018-07-24T20:14:51.641Z,3.40
2018-07-24T20:17:21.061Z,3.40
2018-07-24T20:19:50.263Z,3.10
2018-07-24T20:22:19.479Z,3.90
2018-07-24T20:24:48.727Z,3.83
2018-07-24T20:27:17.965Z,3.70
2018-07-24T20:29:47.180Z,3.70
2018-07-24T20:32:20.493Z,3.50
2018-07-24T20:34:49.510Z,3.87
2018-07-24T20:37:18.837Z,4.00
2018-07-24T20:39:48.059Z,4.87
2018-07-24T20:42:17.280Z,3.47
2018-07-24T20:44:46.261Z,4.00
2018-07-24T20:47:19.370Z,3.90
2018-07-24T20:49:48.747Z,3.70
2018-07-24T20:52:18.023Z,3.80
2018-07-24T20:54:47.313Z,4.43
2018-07-24T20:57:19.848Z,4.73
2018-07-24T20:59:49.239Z,5.60
2018-07-24T21:02:19.631Z,3.93
2018-07-24T21:04:48.921Z,3.47
2018-07-24T21:07:18.134Z,10.47
2018-07-24T21:09:47.309Z,7.70
2018-07-24T21:12:16.598Z,5.60
2018-07-24T21:14:45.822Z,10.97
2018-07-24T21:17:15.048Z,7.20
2018-07-24T21:19:44.285Z,6.20
2018-07-24T21:22:13.526Z,4.60
2018-07-24T21:24:42.730Z,4.73
2018-07-24T21:27:11.960Z,9.27
2018-07-24T21:29:41.147Z,6.40
2018-07-24T21:32:19.916Z,4.50
2018-07-24T21:34:49.097Z,4.63
2018-07-24T21:37:18.299Z,4.50
2018-07-24T21:39:47.526Z,4.20
2018-07-24T21:42:16.707Z,4.53
2018-07-24T21:44:45.896Z,4.77
2018-07-24T21:47:15.162Z,5.43
2018-07-24T21:49:44.604Z,6.40
2018-07-24T21:52:13.818Z,6.43
2018-07-24T21:54:43.135Z,6.20
2018-07-24T21:57:18.490Z,4.47
2018-07-24T21:59:47.710Z,6.27
2018-07-24T22:02:20.091Z,7.33
2018-07-24T22:04:49.347Z,4.87
2018-07-24T22:07:18.569Z,4.40
2018-07-24T22:09:47.749Z,4.30
2018-07-24T22:12:17.392Z,4.30
2018-07-24T22:14:46.572Z,4.60
2018-07-24T22:17:15.746Z,5.17
2018-07-24T22:19:45.077Z,5.63
2018-07-24T22:22:14.923Z,5.30
2018-07-24T22:24:44.104Z,4.80
2018-07-24T22:27:13.423Z,5.63
2018-07-24T22:29:42.610Z,4.50
2018-07-24T22:32:18.894Z,4.70
2018-07-24T22:34:48.058Z,4.60
2018-07-24T22:37:17.250Z,5.30
2018-07-24T22:39:46.466Z,4.90
2018-07-24T22:42:15.646Z,5.40
2018-07-24T22:44:44.810Z,5.50
2018-07-24T22:47:14.067Z,5.33
2018-07-24T22:49:43.238Z,4.53
2018-07-24T22:52:18.778Z,5.23
2018-07-24T22:54:47.974Z,9.20
2018-07-24T22:57:20.266Z,6.40
2018-07-24T22:59:49.476Z,6.13
2018-07-24T23:02:19.303Z,6.63
2018-07-24T23:04:48.523Z,4.50
2018-07-24T23:07:17.785Z,4.50
2018-07-24T23:09:46.966Z,5.70
2018-07-24T23:12:16.282Z,5.43
2018-07-24T23:14:45.479Z,5.67
2018-07-24T23:17:14.731Z,5.13
2018-07-24T23:19:43.979Z,5.37
2018-07-24T23:22:13.183Z,5.10
2018-07-24T23:24:42.416Z,5.67
2018-07-24T23:27:12.080Z,6.33
2018-07-24T23:29:41.272Z,7.10
2018-07-24T23:32:20.374Z,14.03
2018-07-24T23:34:49.553Z,7.60
2018-07-24T23:37:18.739Z,6.53
2018-07-24T23:39:48.001Z,6.17
2018-07-24T23:42:17.187Z,5.93
2018-07-24T23:44:46.408Z,5.63
2018-07-24T23:47:15.600Z,6.37
2018-07-24T23:49:44.795Z,5.33
2018-07-24T23:52:14.243Z,5.80
2018-07-24T23:54:43.426Z,6.27
2018-07-24T23:57:18.787Z,6.67
2018-07-24T23:59:47.954Z,5.80
